Time;durP1;ratioP1;P1;durP2;ratioP2;P2;SDS_P1;SDS_P2;PMS_P1;PMS_P2;Temp;Humidity;BMP_temperature;BMP_pressure;BME280_temperature;BME280_humidity;BME280_pressure;Samples;Min_cycle;Max_cycle;Signal;HPM_P1;HPM_P2
2024/01/11 00:00:07;;;;;;;1999.90;999.90;;;;;;;-7.58;77.16;97359.72;5113265;28;20090;-64
2024/01/11 00:02:34;;;;;;;1999.90;999.90;;;;;;;-7.61;77.36;97357.91;5113347;28;20105;-66
2024/01/11 00:05:02;;;;;;;1999.90;999.90;;;;;;;-7.61;77.68;97360.44;5113388;28;20052;-66
2024/01/11 00:07:29;;;;;;;1999.90;999.90;;;;;;;-7.52;77.72;97360.88;5113425;28;20123;-63
2024/01/11 00:09:57;;;;;;;1999.90;999.90;;;;;;;-7.47;77.76;97353.44;5113291;28;20112;-66
2024/01/11 00:12:24;;;;;;;1999.90;999.90;;;;;;;-7.37;77.93;97354.75;5113312;28;20047;-64
2024/01/11 00:14:51;;;;;;;1999.90;999.90;;;;;;;-7.33;77.69;97345.56;5113311;28;20126;-66
2024/01/11 00:17:18;;;;;;;1999.90;999.90;;;;;;;-7.25;77.61;97345.09;5113246;28;20055;-63
2024/01/11 00:19:45;;;;;;;1999.90;999.90;;;;;;;-7.27;77.62;97338.22;5116796;28;20048;-63
2024/01/11 00:22:12;;;;;;;1999.90;999.90;;;;;;;-7.21;77.66;97338.50;5117252;28;20480;-63
2024/01/11 00:24:40;;;;;;;1999.90;999.90;;;;;;;-7.17;77.98;97336.97;5117191;28;20489;-66
2024/01/11 00:27:08;;;;;;;1999.90;999.90;;;;;;;-7.12;77.95;97336.38;5117211;28;20059;-63
2024/01/11 00:29:37;;;;;;;1999.90;999.90;;;;;;;-7.13;77.75;97332.06;5116936;28;20554;-65
2024/01/11 00:32:05;;;;;;;1999.90;999.90;;;;;;;-7.06;77.58;97329.81;5117095;28;20489;-66
2024/01/11 00:34:32;;;;;;;1999.90;999.90;;;;;;;-6.98;77.50;97336.97;5117210;28;20040;-66
2024/01/11 00:36:59;;;;;;;1999.90;999.90;;;;;;;-6.92;77.39;97332.97;5117018;28;20055;-64
2024/01/11 00:39:26;;;;;;;1999.90;999.90;;;;;;;-6.97;77.25;97327.66;5116979;28;20082;-63
2024/01/11 00:41:53;;;;;;;1999.90;999.90;;;;;;;-6.99;77.30;97325.06;5116911;28;20079;-64
2024/01/11 00:44:22;;;;;;;1999.90;999.90;;;;;;;-7.01;77.36;97319.00;5116849;28;20047;-66
2024/01/11 00:46:49;;;;;;;1999.90;999.90;;;;;;;-7.05;77.57;97314.59;5116884;28;20048;-65
2024/01/11 00:49:16;;;;;;;1999.90;999.90;;;;;;;-7.01;77.97;97311.38;5116746;28;20048;-66
2024/01/11 00:51:43;;;;;;;1999.90;999.90;;;;;;;-6.95;78.12;97315.00;5116525;28;20142;-66
2024/01/11 00:54:10;;;;;;;1999.90;999.90;;;;;;;-6.93;78.28;97313.41;5116561;28;20416;-65
2024/01/11 00:56:37;;;;;;;1999.90;999.90;;;;;;;-6.89;78.39;97307.66;5116614;28;20040;-65
2024/01/11 00:59:04;;;;;;;1999.90;999.90;;;;;;;-6.90;78.27;97314.41;5116550;28;20592;-64
2024/01/11 01:01:33;;;;;;;1999.90;999.90;;;;;;;-6.84;77.97;97313.78;5116480;28;20460;-66
2024/01/11 01:04:00;;;;;;;1999.90;999.90;;;;;;;-6.73;78.11;97306.63;5116465;28;20067;-65
2024/01/11 01:06:27;;;;;;;1999.90;999.90;;;;;;;-6.67;77.64;97304.34;5116486;28;20497;-63
2024/01/11 01:08:55;;;;;;;1999.90;999.90;;;;;;;-6.68;77.58;97302.59;5116346;28;20056;-66
2024/01/11 01:11:22;;;;;;;1999.90;999.90;;;;;;;-6.64;78.01;97309.56;5116320;28;20052;-63
2024/01/11 01:13:49;;;;;;;1999.90;999.90;;;;;;;-6.62;78.03;97304.53;5116216;28;20524;-64
2024/01/11 01:16:17;;;;;;;1999.90;999.90;;;;;;;-6.56;77.81;97302.25;5116145;28;20044;-65
2024/01/11 01:18:46;;;;;;;1999.90;999.90;;;;;;;-6.61;77.95;97299.50;5116157;28;20047;-66
2024/01/11 01:21:13;;;;;;;1999.90;999.90;;;;;;;-6.53;77.60;97301.50;5116274;28;20054;-66
2024/01/11 01:23:40;;;;;;;1999.90;999.90;;;;;;;-6.58;77.98;97288.56;5116111;28;20097;-66
2024/01/11 01:26:08;;;;;;;1999.90;999.90;;;;;;;-6.62;78.12;97289.25;5116096;28;20069;-66
2024/01/11 01:28:36;;;;;;;1999.90;999.90;;;;;;;-6.63;78.33;97280.75;5116087;28;20058;-66
2024/01/11 01:31:03;;;;;;;1999.90;999.90;;;;;;;-6.56;78.51;97275.91;5115269;28;20496;-64
2024/01/11 01:33:30;;;;;;;1999.90;999.90;;;;;;;-6.53;78.08;97278.59;5115859;28;20127;-64
2024/01/11 01:35:58;;;;;;;1999.90;999.90;;;;;;;-6.58;78.08;97278.38;5115945;28;20052;-64
2024/01/11 01:38:25;;;;;;;1999.90;999.90;;;;;;;-6.62;78.06;97264.66;5115844;28;20044;-65
2024/01/11 01:40:52;;;;;;;1999.90;999.90;;;;;;;-6.59;78.22;97263.94;5115684;28;20109;-66
2024/01/11 01:43:19;;;;;;;1999.90;999.90;;;;;;;-6.56;78.40;97261.50;5115627;28;20044;-64
2024/01/11 01:45:47;;;;;;;1999.90;999.90;;;;;;;-6.61;78.04;97257.91;5115687;28;20043;-64
2024/01/11 01:48:15;;;;;;;1999.90;999.90;;;;;;;-6.71;78.18;97251.56;5115709;28;20105;-66
2024/01/11 01:50:42;;;;;;;1999.90;999.90;;;;;;;-6.75;77.79;97248.00;5115315;28;20580;-64
2024/01/11 01:53:11;;;;;;;1999.90;999.90;;;;;;;-6.85;78.19;97246.78;5115563;28;20050;-63
2024/01/11 01:55:38;;;;;;;1999.90;999.90;;;;;;;-6.90;78.14;97243.16;5115643;28;20398;-63
2024/01/11 01:58:05;;;;;;;1999.90;999.90;;;;;;;-6.98;78.25;97236.88;5115476;28;20075;-66
2024/01/11 02:00:32;;;;;;;1999.90;999.90;;;;;;;-6.99;78.10;97236.00;5115341;28;20047;-66
2024/01/11 02:02:59;;;;;;;1999.90;999.90;;;;;;;-6.99;78.25;97232.56;5115270;28;20052;-65
2024/01/11 02:05:27;;;;;;;1999.90;999.90;;;;;;;-7.10;78.41;97227.06;5115249;28;20505;-65
2024/01/11 02:07:54;;;;;;;1999.90;999.90;;;;;;;-7.17;78.45;97218.28;5115303;28;20489;-62
2024/01/11 02:10:24;;;;;;;1999.90;999.90;;;;;;;-7.23;78.68;97220.56;5115114;28;20051;-65
2024/01/11 02:12:51;;;;;;;1999.90;999.90;;;;;;;-7.28;78.58;97215.28;5115151;28;20040;-65
2024/01/11 02:15:18;;;;;;;1999.90;999.90;;;;;;;-7.26;78.65;97213.66;5115069;28;20477;-65
2024/01/11 02:17:46;;;;;;;1999.90;999.90;;;;;;;-7.27;78.51;97211.06;5114996;28;20054;-66
2024/01/11 02:20:13;;;;;;;1999.90;999.90;;;;;;;-7.30;78.55;97206.72;5115045;28;20048;-66
2024/01/11 02:22:48;;;;;;;1999.90;999.90;;;;;;;-7.35;79.16;97205.63;5114995;28;20048;-63
2024/01/11 02:25:16;;;;;;;1999.90;999.90;;;;;;;-7.32;79.18;97197.28;5115096;28;20048;-65
2024/01/11 02:27:47;;;;;;;1999.90;999.90;;;;;;;-7.25;79.28;97204.38;5115026;28;20071;-65
2024/01/11 02:30:15;;;;;;;1999.90;999.90;;;;;;;-7.20;78.75;97200.34;5114886;28;20056;-62
2024/01/11 02:32:44;;;;;;;1999.90;999.90;;;;;;;-7.29;78.83;97203.34;5114927;28;20048;-66
2024/01/11 02:35:11;;;;;;;1999.90;999.90;;;;;;;-7.33;79.12;97206.59;5114707;28;20144;-66
2024/01/11 02:37:39;;;;;;;1999.90;999.90;;;;;;;-7.32;79.01;97210.84;5114502;28;20054;-66
2024/01/11 02:40:08;;;;;;;1999.90;999.90;;;;;;;-7.26;79.54;97205.16;5114552;28;20408;-63
2024/01/11 02:42:37;;;;;;;1999.90;999.90;;;;;;;-7.25;79.81;97201.84;5113685;28;20071;-63
2024/01/11 02:45:04;;;;;;;1999.90;999.90;;;;;;;-7.38;79.88;97197.88;5114437;28;20055;-63
2024/01/11 02:47:31;;;;;;;1999.90;999.90;;;;;;;-7.44;80.08;97200.19;5114672;28;20131;-66
2024/01/11 02:49:58;;;;;;;1999.90;999.90;;;;;;;-7.47;80.94;97190.72;5114352;28;20055;-66
2024/01/11 02:52:25;;;;;;;1999.90;999.90;;;;;;;-7.35;80.93;97192.91;5114242;28;20083;-63
2024/01/11 02:54:52;;;;;;;1999.90;999.90;;;;;;;-7.24;80.60;97191.72;5114436;28;20051;-64
2024/01/11 02:57:19;;;;;;;1999.90;999.90;;;;;;;-7.21;80.60;97192.63;5114309;28;20039;-65
2024/01/11 02:59:48;;;;;;;1999.90;999.90;;;;;;;-7.14;80.50;97190.44;5114272;28;20071;-65
2024/01/11 03:02:15;;;;;;;1999.90;999.90;;;;;;;-7.02;80.38;97189.19;5114313;28;20051;-64
2024/01/11 03:04:42;;;;;;;1999.90;999.90;;;;;;;-7.06;80.45;97190.75;5114150;28;20044;-65
2024/01/11 03:07:09;;;;;;;1999.90;999.90;;;;;;;-7.14;80.68;97187.00;5114031;28;20056;-65
2024/01/11 03:09:35;;;;;;;1999.90;999.90;;;;;;;-7.01;80.63;97190.94;5114102;28;20052;-64
2024/01/11 03:12:03;;;;;;;1999.90;999.90;;;;;;;-6.94;80.56;97187.84;5114298;28;20051;-66
2024/01/11 03:14:30;;;;;;;1999.90;999.90;;;;;;;-6.91;80.90;97187.09;5113967;28;20051;-63
2024/01/11 03:16:58;;;;;;;1999.90;999.90;;;;;;;-6.89;81.28;97190.59;5114097;28;20044;-64
2024/01/11 03:19:25;;;;;;;1999.90;999.90;;;;;;;-6.84;81.22;97186.53;5113935;28;20047;-64
2024/01/11 03:21:52;;;;;;;1999.90;999.90;;;;;;;-6.81;81.58;97189.22;5114131;28;20055;-63
2024/01/11 03:24:19;;;;;;;1999.90;999.90;;;;;;;-6.72;81.71;97189.59;5114034;28;20048;-64
2024/01/11 03:26:46;;;;;;;1999.90;999.90;;;;;;;-6.65;81.59;97188.16;5113759;28;20051;-64
2024/01/11 03:29:13;;;;;;;1999.90;999.90;;;;;;;-6.60;81.26;97183.25;5113718;28;20048;-64
2024/01/11 03:31:42;;;;;;;1999.90;999.90;;;;;;;-6.61;80.88;97187.50;5113596;28;20390;-64
2024/01/11 03:34:10;;;;;;;1999.90;999.90;;;;;;;-6.63;81.12;97183.13;5113760;28;20138;-63
2024/01/11 03:36:37;;;;;;;1999.90;999.90;;;;;;;-6.56;81.25;97179.16;5113736;28;20047;-63
2024/01/11 03:39:04;;;;;;;1999.90;999.90;;;;;;;-6.61;81.73;97179.84;5113511;28;20051;-65
2024/01/11 03:41:31;;;;;;;1999.90;999.90;;;;;;;-6.60;81.76;97184.13;5113513;28;20043;-66
2024/01/11 03:43:59;;;;;;;1999.90;999.90;;;;;;;-6.59;81.66;97182.47;5113544;28;20043;-66
2024/01/11 03:46:26;;;;;;;1999.90;999.90;;;;;;;-6.52;81.86;97170.81;5113495;28;20149;-65
2024/01/11 03:48:53;;;;;;;1999.90;999.90;;;;;;;-6.53;81.46;97180.13;5113786;28;20124;-66
2024/01/11 03:51:21;;;;;;;1999.90;999.90;;;;;;;-6.48;81.39;97173.56;5113323;28;20105;-65
2024/01/11 03:53:48;;;;;;;1999.90;999.90;;;;;;;-6.43;81.21;97168.66;5113261;28;20050;-65
2024/01/11 03:56:15;;;;;;;1999.90;999.90;;;;;;;-6.44;81.02;97161.81;5113389;28;20081;-63
2024/01/11 03:58:44;;;;;;;1999.90;999.90;;;;;;;-6.42;80.79;97164.44;5113505;28;20047;-66
2024/01/11 04:01:11;;;;;;;1999.90;999.90;;;;;;;-6.36;80.77;97165.53;5113469;28;20096;-65
2024/01/11 04:03:38;;;;;;;1999.90;999.90;;;;;;;-6.35;80.27;97166.41;5113466;28;20040;-66
2024/01/11 04:06:06;;;;;;;1999.90;999.90;;;;;;;-6.33;80.15;97152.03;5113382;28;20128;-62
2024/01/11 04:08:35;;;;;;;1999.90;999.90;;;;;;;-6.30;80.25;97157.25;5113429;28;20046;-63
2024/01/11 04:11:04;;;;;;;1999.90;999.90;;;;;;;-6.36;80.03;97150.25;5113244;28;20056;-66
2024/01/11 04:13:31;;;;;;;1999.90;999.90;;;;;;;-6.45;80.10;97151.56;5113287;28;20427;-66
2024/01/11 04:15:58;;;;;;;1999.90;999.90;;;;;;;-6.48;80.92;97152.31;5113290;28;20072;-64
2024/01/11 04:18:25;;;;;;;1999.90;999.90;;;;;;;-6.51;81.39;97150.53;5113367;28;20054;-63
2024/01/11 04:20:52;;;;;;;1999.90;999.90;;;;;;;-6.47;81.21;97149.81;5113257;28;20055;-64
2024/01/11 04:23:19;;;;;;;1999.90;999.90;;;;;;;-6.44;81.21;97156.72;5113150;28;20130;-66
2024/01/11 04:25:47;;;;;;;1999.90;999.90;;;;;;;-6.39;81.07;97151.78;5113081;28;20044;-64
2024/01/11 04:28:15;;;;;;;1999.90;999.90;;;;;;;-6.43;80.33;97149.94;5113131;28;20054;-65
2024/01/11 04:30:42;;;;;;;1999.90;999.90;;;;;;;-6.55;80.50;97146.13;5113088;28;20316;-64
2024/01/11 04:33:10;;;;;;;1999.90;999.90;;;;;;;-6.55;80.77;97145.25;5112936;28;20516;-66
2024/01/11 04:35:37;;;;;;;1999.90;999.90;;;;;;;-6.67;80.47;97149.06;5113103;28;20040;-66
2024/01/11 04:38:04;;;;;;;1999.90;999.90;;;;;;;-6.76;80.65;97154.66;5113050;28;20413;-65
2024/01/11 04:40:31;;;;;;;1999.90;999.90;;;;;;;-6.77;80.68;97149.50;5112953;28;20493;-65
2024/01/11 04:43:00;;;;;;;1999.90;999.90;;;;;;;-6.75;80.37;97156.38;5112995;28;20132;-64
2024/01/11 04:45:27;;;;;;;1999.90;999.90;;;;;;;-6.82;80.27;97148.44;5112942;28;20103;-63
2024/01/11 04:47:54;;;;;;;1999.90;999.90;;;;;;;-6.89;80.16;97152.41;5112951;28;20052;-63
2024/01/11 04:50:21;;;;;;;1999.90;999.90;;;;;;;-6.97;79.75;97149.56;5112789;28;20447;-63
2024/01/11 04:52:48;;;;;;;1999.90;999.90;;;;;;;-6.98;79.58;97150.38;5112999;28;20134;-66
2024/01/11 04:55:15;;;;;;;1999.90;999.90;;;;;;;-6.99;79.54;97161.34;5112938;28;20073;-66
2024/01/11 04:57:43;;;;;;;1999.90;999.90;;;;;;;-7.07;79.46;97153.41;5112904;28;20127;-65
2024/01/11 05:00:12;;;;;;;1999.90;999.90;;;;;;;-7.14;79.59;97154.81;5112811;28;20082;-65
2024/01/11 05:02:39;;;;;;;1999.90;999.90;;;;;;;-7.18;79.75;97147.88;5112867;28;20508;-62
2024/01/11 05:05:07;;;;;;;1999.90;999.90;;;;;;;-7.24;80.02;97156.13;5113498;28;20043;-65
2024/01/11 05:07:35;;;;;;;1999.90;999.90;;;;;;;-7.27;80.30;97162.75;5116399;28;20054;-63
2024/01/11 05:10:03;;;;;;;1999.90;999.90;;;;;;;-7.32;79.83;97164.22;5116467;28;20146;-65
2024/01/11 05:12:31;;;;;;;1999.90;999.90;;;;;;;-7.39;79.35;97156.34;5116341;28;20124;-66
2024/01/11 05:14:58;;;;;;;1999.90;999.90;;;;;;;-7.37;79.22;97157.25;5116301;28;20048;-66
2024/01/11 05:17:27;;;;;;;1999.90;999.90;;;;;;;-7.38;79.04;97160.63;5116322;28;20061;-66
2024/01/11 05:19:54;;;;;;;1999.90;999.90;;;;;;;-7.39;78.82;97158.88;5116267;28;20043;-63
2024/01/11 05:22:21;;;;;;;1999.90;999.90;;;;;;;-7.42;78.51;97157.88;5116116;28;20080;-64
2024/01/11 05:24:48;;;;;;;1999.90;999.90;;;;;;;-7.51;78.44;97153.25;5116212;28;20093;-68
2024/01/11 05:27:15;;;;;;;1999.90;999.90;;;;;;;-7.56;78.85;97147.13;5116130;28;20135;-64
2024/01/11 05:29:42;;;;;;;1999.90;999.90;;;;;;;-7.57;78.82;97153.00;5116168;28;20104;-65
2024/01/11 05:32:10;;;;;;;1999.90;999.90;;;;;;;-7.64;79.32;97152.75;5115830;28;20142;-64
2024/01/11 05:34:38;;;;;;;1999.90;999.90;;;;;;;-7.64;79.33;97151.88;5115945;28;20040;-64
2024/01/11 05:37:06;;;;;;;1999.90;999.90;;;;;;;-7.66;79.31;97141.63;5115433;28;20130;-65
2024/01/11 05:39:33;;;;;;;1999.90;999.90;;;;;;;-7.61;79.39;97137.59;5115829;28;20053;-65
2024/01/11 05:42:00;;;;;;;1999.90;999.90;;;;;;;-7.63;79.02;97135.81;5115882;28;20135;-64
2024/01/11 05:44:27;;;;;;;1999.90;999.90;;;;;;;-7.69;79.34;97128.81;5115721;28;20051;-64
2024/01/11 05:46:54;;;;;;;1999.90;999.90;;;;;;;-7.63;79.18;97123.97;5115710;28;20135;-61
2024/01/11 05:49:21;;;;;;;1999.90;999.90;;;;;;;-7.57;78.82;97127.56;5115698;28;20073;-62
2024/01/11 05:51:49;;;;;;;1999.90;999.90;;;;;;;-7.56;78.57;97122.56;5115277;28;20067;-64
2024/01/11 05:54:17;;;;;;;1999.90;999.90;;;;;;;-7.53;78.19;97120.16;5115553;28;20089;-65
2024/01/11 05:56:44;;;;;;;1999.90;999.90;;;;;;;-7.58;77.88;97121.66;5115449;28;20071;-65
2024/01/11 05:59:11;;;;;;;1999.90;999.90;;;;;;;-7.58;78.41;97121.66;5115492;28;20048;-65
2024/01/11 06:01:43;;;;;;;1999.90;999.90;;;;;;;-7.60;78.52;97125.78;5115414;28;20519;-65
2024/01/11 06:04:10;;;;;;;1999.90;999.90;;;;;;;-7.63;78.60;97116.34;5115395;28;20055;-65
2024/01/11 06:06:37;;;;;;;1999.90;999.90;;;;;;;-7.64;78.47;97113.75;5115262;28;20062;-64
2024/01/11 06:09:06;;;;;;;1999.90;999.90;;;;;;;-7.67;79.01;97108.53;5115280;28;20039;-62
2024/01/11 06:11:33;;;;;;;1999.90;999.90;;;;;;;-7.63;79.27;97113.81;5115092;28;20071;-65
2024/01/11 06:14:02;;;;;;;1999.90;999.90;;;;;;;-7.54;79.14;97107.38;5115095;28;20054;-65
2024/01/11 06:16:29;;;;;;;1999.90;999.90;;;;;;;-7.48;78.90;97110.19;5115032;28;20051;-64
2024/01/11 06:18:56;;;;;;;1999.90;999.90;;;;;;;-7.49;78.65;97111.84;5115145;28;20108;-65
2024/01/11 06:21:23;;;;;;;1999.90;999.90;;;;;;;-7.47;78.42;97104.28;5114917;28;20458;-64
2024/01/11 06:23:51;;;;;;;1999.90;999.90;;;;;;;-7.30;79.65;97096.50;5115102;28;20040;-63
2024/01/11 06:26:19;;;;;;;1999.90;999.90;;;;;;;-5.91;80.83;97102.59;5114930;28;20075;-64
2024/01/11 06:28:46;;;;;;;1999.90;999.90;;;;;;;-3.87;75.99;97107.28;5114882;28;20105;-63
2024/01/11 06:31:14;;;;;;;1999.90;999.90;;;;;;;-2.08;67.77;97114.19;5114982;28;20462;-67
2024/01/11 06:33:41;;;;;;;1999.90;999.90;;;;;;;-0.35;62.30;97115.50;5114808;28;20039;-64
2024/01/11 06:36:08;;;;;;;1999.90;999.90;;;;;;;1.53;55.65;97101.19;5114836;28;20054;-64
2024/01/11 06:38:35;;;;;;;1999.90;999.90;;;;;;;3.01;49.20;97090.59;5114742;28;20401;-63
2024/01/11 06:41:02;;;;;;;1999.90;999.90;;;;;;;4.40;46.14;97101.56;5115044;28;20054;-64
2024/01/11 06:43:31;;;;;;;1999.90;999.90;;;;;;;5.20;43.32;97100.25;5114970;28;20043;-67
2024/01/11 06:46:04;;;;;;;1999.90;999.90;;;;;;;5.12;42.34;97100.31;5114442;28;20516;-64
2024/01/11 06:48:31;;;;;;;1999.90;999.90;;;;;;;4.70;43.28;97101.44;5114503;28;20127;-62
2024/01/11 06:50:58;;;;;;;1999.90;999.90;;;;;;;4.47;41.91;97102.41;5114157;28;20130;-66
2024/01/11 06:53:25;;;;;;;1999.90;999.90;;;;;;;4.42;42.62;97099.84;5114419;28;20070;-62
2024/01/11 06:55:53;;;;;;;1999.90;999.90;;;;;;;4.63;42.41;97097.13;5114493;28;20443;-64
2024/01/11 06:58:22;;;;;;;1999.90;999.90;;;;;;;5.62;41.03;97094.69;5114298;28;20553;-62
2024/01/11 07:00:51;;;;;;;1999.90;999.90;;;;;;;7.31;38.59;97099.56;5114240;28;20058;-66
2024/01/11 07:03:18;;;;;;;1999.90;999.90;;;;;;;8.65;36.03;97098.03;5114253;28;20485;-68
2024/01/11 07:05:45;;;;;;;1999.90;999.90;;;;;;;9.98;33.70;97095.75;5114055;28;20043;-67
2024/01/11 07:08:13;;;;;;;1999.90;999.90;;;;;;;10.81;33.00;97090.84;5114074;28;20485;-64
2024/01/11 07:10:40;;;;;;;1999.90;999.90;;;;;;;11.86;31.22;97091.03;5114250;28;20120;-65
2024/01/11 07:13:10;;;;;;;1999.90;999.90;;;;;;;12.76;29.04;97085.19;5113956;28;20055;-64
2024/01/11 07:15:37;;;;;;;1999.90;999.90;;;;;;;13.37;28.79;97095.13;5113938;28;20054;-67
2024/01/11 07:18:06;;;;;;;1999.90;999.90;;;;;;;13.97;28.09;97083.06;5113816;28;20043;-66
2024/01/11 07:20:33;;;;;;;1999.90;999.90;;;;;;;14.48;27.25;97087.84;5113910;28;20523;-67
2024/01/11 07:23:00;;;;;;;1999.90;999.90;;;;;;;15.01;26.75;97083.69;5113912;28;20488;-67
2024/01/11 07:25:28;;;;;;;1999.90;999.90;;;;;;;15.60;25.93;97081.78;5113826;28;20047;-66
2024/01/11 07:27:55;;;;;;;1999.90;999.90;;;;;;;16.31;24.97;97087.06;5113258;28;20085;-66
2024/01/11 07:30:22;;;;;;;1999.90;999.90;;;;;;;16.82;24.87;97079.03;5113874;28;20047;-67
2024/01/11 07:32:49;;;;;;;1999.90;999.90;;;;;;;17.02;24.73;97085.88;5113537;28;20092;-66
2024/01/11 07:35:17;;;;;;;1999.90;999.90;;;;;;;17.10;23.95;97084.63;5113779;28;20043;-67
2024/01/11 07:37:44;;;;;;;1999.90;999.90;;;;;;;17.33;24.04;97078.03;5113745;28;20134;-64
2024/01/11 07:40:13;;;;;;;1999.90;999.90;;;;;;;17.61;23.33;97081.72;5113725;28;20052;-64
2024/01/11 07:42:41;;;;;;;1999.90;999.90;;;;;;;18.07;22.74;97077.31;5113552;28;20059;-64
2024/01/11 07:45:10;;;;;;;1999.90;999.90;;;;;;;18.64;22.13;97075.66;5113651;28;20067;-67
2024/01/11 07:47:37;;;;;;;1999.90;999.90;;;;;;;18.84;22.37;97080.66;5113633;28;20044;-64
2024/01/11 07:50:06;;;;;;;1999.90;999.90;;;;;;;18.94;21.68;97082.59;5113552;28;20055;-64
2024/01/11 07:52:34;;;;;;;1999.90;999.90;;;;;;;19.16;20.96;97072.47;5113327;28;20051;-66
2024/01/11 07:55:06;;;;;;;1999.90;999.90;;;;;;;19.24;21.04;97072.84;5113479;28;20135;-67
2024/01/11 07:57:33;;;;;;;1999.90;999.90;;;;;;;19.54;21.03;97066.44;5113454;28;20509;-67
2024/01/11 08:00:00;;;;;;;1999.90;999.90;;;;;;;19.66;20.28;97061.28;5113532;28;20043;-64
2024/01/11 08:02:27;;;;;;;1999.90;999.90;;;;;;;19.87;20.67;97064.28;5113331;28;20083;-67
2024/01/11 08:04:54;;;;;;;1999.90;999.90;;;;;;;20.05;20.48;97059.56;5113308;28;20100;-65
2024/01/11 08:07:21;;;;;;;1999.90;999.90;;;;;;;20.15;20.33;97062.44;5113555;28;20050;-68
2024/01/11 08:09:50;;;;;;;1999.90;999.90;;;;;;;20.15;20.21;97058.94;5113423;28;20043;-63
2024/01/11 08:12:17;;;;;;;1999.90;999.90;;;;;;;20.07;20.60;97056.78;5113421;28;20584;-65
2024/01/11 08:14:46;;;;;;;1999.90;999.90;;;;;;;20.52;19.90;97047.53;5113197;28;20143;-63
2024/01/11 08:17:13;;;;;;;1999.90;999.90;;;;;;;20.76;19.59;97044.94;5113245;28;20519;-66
2024/01/11 08:19:42;;;;;;;1999.90;999.90;;;;;;;20.47;20.37;97041.72;5113289;28;20048;-68
2024/01/11 08:22:11;;;;;;;1999.90;999.90;;;;;;;19.87;20.46;97048.34;5113093;28;20125;-65
2024/01/11 08:24:38;;;;;;;1999.90;999.90;;;;;;;20.62;19.99;97039.78;5113256;28;20105;-67
2024/01/11 08:27:07;;;;;;;1999.90;999.90;;;;;;;21.20;19.04;97034.69;5113268;28;20083;-64
2024/01/11 08:29:34;;;;;;;1999.90;999.90;;;;;;;20.57;19.94;97027.66;5113149;28;20089;-66
2024/01/11 08:32:04;;;;;;;1999.90;999.90;;;;;;;19.64;20.35;97031.34;5113138;28;20050;-63
2024/01/11 08:34:31;;;;;;;1999.90;999.90;;;;;;;18.90;21.04;97025.44;5113198;28;20100;-66
2024/01/11 08:36:58;;;;;;;1999.90;999.90;;;;;;;19.42;20.00;97016.88;5113079;28;20050;-66
2024/01/11 08:39:25;;;;;;;1999.90;999.90;;;;;;;19.47;20.09;97020.06;5113162;28;20078;-65
2024/01/11 08:41:52;;;;;;;1999.90;999.90;;;;;;;19.56;19.67;97016.78;5116754;28;20051;-68
2024/01/11 08:44:21;;;;;;;1999.90;999.90;;;;;;;19.35;20.06;97015.59;5117043;28;20062;-65
2024/01/11 08:46:48;;;;;;;1999.90;999.90;;;;;;;17.55;21.44;97014.16;5116904;28;20047;-64
2024/01/11 08:49:16;;;;;;;1999.90;999.90;;;;;;;16.93;22.54;97013.25;5116840;28;20044;-64
2024/01/11 08:51:43;;;;;;;1999.90;999.90;;;;;;;15.68;23.60;97010.22;5116585;28;20479;-65
2024/01/11 08:54:11;;;;;;;1999.90;999.90;;;;;;;15.24;24.29;97013.22;5116790;28;20072;-68
2024/01/11 08:56:39;;;;;;;1999.90;999.90;;;;;;;14.99;24.46;97005.66;5116580;28;20043;-64
2024/01/11 08:59:08;;;;;;;1999.90;999.90;;;;;;;14.43;25.17;97002.97;5116673;28;20131;-63
2024/01/11 09:01:37;;;;;;;1999.90;999.90;;;;;;;13.92;25.03;96990.34;5116513;28;20067;-64
2024/01/11 09:04:04;;;;;;;1999.90;999.90;;;;;;;12.88;26.66;96986.72;5116500;28;20050;-67
2024/01/11 09:06:32;;;;;;;1999.90;999.90;;;;;;;11.90;27.53;96987.75;5116532;28;20056;-66
2024/01/11 09:08:59;;;;;;;1999.90;999.90;;;;;;;11.04;29.06;96976.69;5116416;28;20470;-66
2024/01/11 09:11:26;;;;;;;1999.90;999.90;;;;;;;10.58;29.59;96974.66;5116663;28;20078;-66
2024/01/11 09:13:53;;;;;;;1999.90;999.90;;;;;;;10.12;29.83;96972.53;5116401;28;20055;-67
2024/01/11 09:16:20;;;;;;;1999.90;999.90;;;;;;;8.78;31.60;96968.19;5116296;28;20079;-66
2024/01/11 09:18:48;;;;;;;1999.90;999.90;;;;;;;8.09;32.02;96954.03;5116348;28;20044;-62
2024/01/11 09:21:16;;;;;;;1999.90;999.90;;;;;;;7.64;32.14;96950.59;5116199;28;20138;-64
2024/01/11 09:23:43;;;;;;;1999.90;999.90;;;;;;;7.13;34.11;96947.19;5116171;28;20047;-68
2024/01/11 09:26:10;;;;;;;1999.90;999.90;;;;;;;6.53;35.48;96944.69;5116209;28;20051;-66
2024/01/11 09:28:37;;;;;;;1999.90;999.90;;;;;;;6.06;35.40;96931.53;5116065;28;20083;-69
2024/01/11 09:31:04;;;;;;;1999.90;999.90;;;;;;;5.61;36.53;96932.94;5115907;28;20451;-67
2024/01/11 09:33:32;;;;;;;1999.90;999.90;;;;;;;5.41;37.17;96933.13;5116043;28;20043;-68
2024/01/11 09:36:00;;;;;;;1999.90;999.90;;;;;;;5.38;37.72;96925.38;5115980;28;20079;-65
2024/01/11 09:38:27;;;;;;;1999.90;999.90;;;;;;;5.32;36.48;96918.53;5115960;28;20454;-63
2024/01/11 09:41:08;;;;;;;1999.90;999.90;;;;;;;5.10;37.45;96908.41;5115771;28;20050;-66
2024/01/11 09:43:34;;;;;;;;;;;;;;;4.81;38.92;96901.75;5116248;28;20056;-66
2024/01/11 09:46:04;;;;;;;1999.90;999.90;;;;;;;4.55;39.33;96895.91;5115817;28;19945;-69
2024/01/11 09:48:33;;;;;;;1999.90;999.90;;;;;;;4.42;40.78;96895.16;5115835;28;20122;-66
2024/01/11 09:51:03;;;;;;;1999.90;999.90;;;;;;;4.47;40.50;96889.09;5114992;28;20493;-65
2024/01/11 09:53:32;;;;;;;1999.90;999.90;;;;;;;4.53;41.29;96881.25;5115705;28;20134;-66
2024/01/11 09:56:00;;;;;;;1999.90;999.90;;;;;;;4.69;40.16;96884.56;5115640;28;20047;-67
2024/01/11 09:58:27;;;;;;;1999.90;999.90;;;;;;;4.79;40.50;96869.81;5115441;28;20062;-67
2024/01/11 10:00:56;;;;;;;1999.90;999.90;;;;;;;4.80;39.64;96871.53;5115331;28;20062;-68
2024/01/11 10:03:24;;;;;;;1999.90;999.90;;;;;;;4.81;41.05;96868.03;5115295;28;20487;-64
2024/01/11 10:05:56;;;;;;;1999.90;999.90;;;;;;;4.90;40.02;96860.19;5115314;28;20055;-66
2024/01/11 10:08:24;;;;;;;1999.90;999.90;;;;;;;4.82;39.61;96864.59;5115338;28;20043;-67
2024/01/11 10:10:52;;;;;;;1999.90;999.90;;;;;;;4.90;39.66;96856.72;5115282;28;20130;-67
2024/01/11 10:13:20;;;;;;;1999.90;999.90;;;;;;;4.98;38.79;96854.94;5115136;28;20051;-65
2024/01/11 10:15:47;;;;;;;1999.90;999.90;;;;;;;4.85;37.90;96849.00;5115195;28;20047;-67
2024/01/11 10:18:14;;;;;;;1999.90;999.90;;;;;;;4.92;38.86;96842.03;5115129;28;20043;-65
2024/01/11 10:20:41;;;;;;;1999.90;999.90;;;;;;;4.89;38.85;96840.31;5115030;28;20040;-64
2024/01/11 10:23:08;;;;;;;1999.90;999.90;;;;;;;4.93;36.97;96831.63;5114893;28;20054;-67
2024/01/11 10:25:37;;;;;;;1999.90;999.90;;;;;;;5.10;38.17;96834.91;5114971;28;20142;-65
2024/01/11 10:28:04;;;;;;;1999.90;999.90;;;;;;;5.17;36.67;96823.59;5114913;28;20051;-65
2024/01/11 10:30:33;;;;;;;1999.90;999.90;;;;;;;5.27;36.80;96821.75;5114950;28;20048;-66
2024/01/11 10:33:00;;;;;;;1999.90;999.90;;;;;;;5.35;35.91;96821.63;5114787;28;20405;-65
2024/01/11 10:35:27;;;;;;;1999.90;999.90;;;;;;;5.30;36.07;96817.38;5114636;28;20047;-65
2024/01/11 10:37:56;;;;;;;1999.90;999.90;;;;;;;5.45;36.11;96815.47;5114844;28;20100;-67
2024/01/11 10:40:25;;;;;;;1999.90;999.90;;;;;;;5.56;34.99;96820.50;5114651;28;20071;-65
2024/01/11 10:42:54;;;;;;;1999.90;999.90;;;;;;;5.46;34.92;96809.41;5114525;28;20059;-67
2024/01/11 10:45:22;;;;;;;1999.90;999.90;;;;;;;5.45;35.26;96805.09;5114565;28;20043;-69
2024/01/11 10:47:55;;;;;;;1999.90;999.90;;;;;;;5.36;35.62;96800.88;5114379;28;20079;-67
2024/01/11 10:50:24;;;;;;;1999.90;999.90;;;;;;;5.30;35.51;96801.81;5114563;28;20055;-66
2024/01/11 10:53:03;;;;;;;1999.90;999.90;;;;;;;5.39;35.11;96792.19;5114470;28;20095;-67
2024/01/11 10:55:32;;;;;;;1999.90;999.90;;;;;;;5.39;34.79;96774.03;5114420;28;20047;-66
2024/01/11 10:58:01;;;;;;;1999.90;999.90;;;;;;;5.37;36.58;96770.59;5114325;28;20046;-68